createdAt,value
2022-10-23T00:00:24.634Z,19.38
2022-10-23T00:03:27.439Z,19.39
2022-10-23T00:06:30.723Z,19.43
2022-10-23T00:09:33.400Z,19.44
2022-10-23T00:12:36.122Z,19.39
2022-10-23T00:15:40.211Z,19.41
2022-10-23T00:18:42.932Z,19.40
2022-10-23T00:21:45.701Z,19.41
2022-10-23T00:24:48.345Z,19.37
2022-10-23T00:27:51.049Z,19.36
2022-10-23T00:30:55.126Z,19.35
2022-10-23T00:33:57.849Z,19.30
2022-10-23T00:37:00.537Z,19.29
2022-10-23T00:40:03.271Z,19.29
2022-10-23T00:43:06.405Z,19.31
2022-10-23T00:46:10.461Z,19.32
2022-10-23T00:49:13.687Z,19.32
2022-10-23T00:52:17.416Z,19.33
2022-10-23T00:55:21.592Z,19.35
2022-10-23T00:58:24.223Z,19.36
2022-10-23T01:01:28.407Z,19.39
2022-10-23T01:04:31.424Z,19.35
2022-10-23T01:07:37.700Z,19.31
2022-10-23T01:10:44.080Z,19.27
2022-10-23T01:13:50.835Z,19.30
2022-10-23T01:17:01.339Z,19.29
2022-10-23T01:20:12.229Z,19.32
2022-10-23T01:23:39.032Z,19.30
2022-10-23T01:26:51.650Z,19.33
2022-10-23T01:30:00.408Z,19.33
2022-10-23T01:33:06.797Z,19.35
2022-10-23T01:36:12.342Z,19.34
2022-10-23T01:39:17.420Z,19.34
2022-10-23T01:42:22.913Z,19.33
2022-10-23T01:45:29.823Z,19.33
2022-10-23T01:48:35.309Z,19.31
2022-10-23T01:51:39.753Z,19.31
2022-10-23T01:54:46.716Z,19.33
2022-10-23T01:57:50.872Z,19.31
2022-10-23T02:00:58.338Z,19.31
2022-10-23T02:04:04.320Z,19.30
2022-10-23T02:07:07.178Z,19.31
2022-10-23T02:10:10.890Z,19.35
2022-10-23T02:13:17.720Z,19.33
2022-10-23T02:16:25.164Z,19.32
2022-10-23T02:19:31.060Z,19.33
2022-10-23T02:22:36.983Z,19.33
2022-10-23T02:25:44.472Z,19.33
2022-10-23T02:28:50.787Z,19.33
2022-10-23T02:31:54.927Z,19.30
2022-10-23T02:34:57.969Z,19.29
2022-10-23T02:38:01.826Z,19.30
2022-10-23T02:41:22.268Z,19.32
2022-10-23T02:44:33.463Z,19.29
2022-10-23T02:47:42.292Z,19.28
2022-10-23T02:50:50.210Z,19.30
2022-10-23T02:57:07.290Z,19.29
2022-10-23T03:00:12.134Z,19.30
2022-10-23T03:03:18.468Z,19.28
2022-10-23T03:06:21.629Z,19.32
2022-10-23T03:09:24.553Z,19.29
2022-10-23T03:12:27.339Z,19.30
2022-10-23T03:15:30.130Z,19.32
2022-10-23T03:18:34.288Z,19.30
2022-10-23T03:21:37.043Z,19.29
2022-10-23T03:24:39.797Z,19.28
2022-10-23T03:27:42.675Z,19.31
2022-10-23T03:30:45.367Z,19.33
2022-10-23T03:33:49.540Z,19.31
2022-10-23T03:36:52.284Z,19.31
2022-10-23T03:39:55.086Z,19.32
2022-10-23T03:42:57.879Z,19.30
2022-10-23T03:46:01.256Z,19.32
2022-10-23T03:49:05.866Z,19.30
2022-10-23T03:52:09.207Z,19.31
2022-10-23T03:55:12.208Z,19.32
2022-10-23T03:58:15.011Z,19.33
2022-10-23T04:01:17.844Z,19.29
2022-10-23T04:04:22.042Z,19.24
2022-10-23T04:07:24.785Z,19.24
2022-10-23T04:10:27.542Z,19.23
2022-10-23T04:13:30.360Z,19.25
2022-10-23T04:16:33.153Z,19.24
2022-10-23T04:19:37.330Z,19.20
2022-10-23T04:22:40.317Z,19.21
2022-10-23T04:25:43.363Z,19.25
2022-10-23T04:28:46.136Z,19.22
2022-10-23T04:31:48.896Z,19.21
2022-10-23T04:34:53.086Z,19.21
2022-10-23T04:37:55.829Z,19.22
2022-10-23T04:40:58.626Z,19.20
2022-10-23T04:44:02.454Z,19.17
2022-10-23T04:47:05.265Z,19.21
2022-10-23T04:50:09.533Z,19.16
2022-10-23T04:53:12.312Z,19.14
2022-10-23T04:56:15.879Z,19.15
2022-10-23T04:59:18.587Z,19.15
2022-10-23T05:02:21.417Z,19.17
2022-10-23T05:05:25.548Z,19.18
2022-10-23T05:08:28.291Z,19.20
2022-10-23T05:11:31.085Z,19.15
2022-10-23T05:14:33.863Z,19.16
2022-10-23T05:17:38.001Z,19.17
2022-10-23T05:20:43.170Z,19.16
2022-10-23T05:23:46.819Z,19.17
2022-10-23T05:26:51.708Z,19.14
2022-10-23T05:29:54.472Z,19.10
2022-10-23T05:32:57.280Z,19.09
2022-10-23T05:36:01.922Z,19.07
2022-10-23T05:39:05.587Z,19.09
2022-10-23T05:42:08.622Z,19.11
2022-10-23T05:45:11.849Z,19.17
2022-10-23T05:48:29.825Z,19.23
2022-10-23T05:51:39.613Z,19.25
2022-10-23T05:54:43.383Z,19.27
2022-10-23T05:57:46.470Z,19.22
2022-10-23T06:00:49.510Z,19.20
2022-10-23T06:03:52.298Z,19.22
2022-10-23T06:06:56.454Z,19.23
2022-10-23T06:09:59.277Z,19.18
2022-10-23T06:13:02.029Z,19.16
2022-10-23T06:16:11.109Z,19.17
2022-10-23T06:19:14.081Z,19.25
2022-10-23T06:25:25.882Z,19.27
2022-10-23T06:28:28.967Z,19.26
2022-10-23T06:31:31.837Z,19.26
2022-10-23T06:34:34.884Z,19.28
2022-10-23T06:37:39.831Z,19.24
2022-10-23T06:40:42.644Z,19.25
2022-10-23T06:43:45.804Z,19.25
2022-10-23T06:46:48.555Z,19.25
2022-10-23T06:49:51.222Z,19.17
2022-10-23T06:52:56.347Z,19.14
2022-10-23T06:56:00.643Z,19.21
2022-10-23T06:59:03.487Z,19.25
2022-10-23T07:02:08.247Z,19.28
2022-10-23T07:05:13.547Z,19.28
2022-10-23T07:08:18.753Z,19.28
2022-10-23T07:11:21.527Z,19.28
2022-10-23T07:14:24.316Z,19.26
2022-10-23T07:17:27.189Z,19.28
2022-10-23T07:20:30.237Z,19.28
2022-10-23T07:23:34.556Z,19.23
2022-10-23T07:26:37.467Z,19.31
2022-10-23T07:29:40.350Z,19.31
2022-10-23T07:32:43.454Z,19.33
2022-10-23T07:35:47.457Z,19.36
2022-10-23T07:38:51.824Z,19.36
2022-10-23T07:41:54.654Z,19.26
2022-10-23T07:44:57.555Z,19.28
2022-10-23T07:48:00.378Z,19.31
2022-10-23T07:51:08.248Z,19.35
2022-10-23T07:54:13.227Z,19.34
2022-10-23T07:57:16.551Z,19.27
2022-10-23T08:00:19.512Z,19.26
2022-10-23T08:03:22.392Z,19.31
2022-10-23T08:06:25.335Z,19.31
2022-10-23T08:09:29.539Z,19.35
2022-10-23T08:12:32.478Z,19.37
2022-10-23T08:15:35.268Z,19.34
2022-10-23T08:18:41.232Z,19.32
2022-10-23T08:21:44.090Z,19.34
2022-10-23T08:24:48.305Z,19.33
2022-10-23T08:27:52.211Z,19.32
2022-10-23T08:30:55.479Z,19.34
2022-10-23T08:33:58.456Z,19.36
2022-10-23T08:37:01.382Z,19.34
2022-10-23T08:40:05.970Z,19.34
2022-10-23T08:43:14.558Z,19.36
2022-10-23T08:46:19.243Z,19.35
2022-10-23T08:49:27.510Z,19.37
2022-10-23T08:52:33.270Z,19.34
2022-10-23T08:55:39.398Z,19.36
2022-10-23T08:58:46.270Z,19.35
2022-10-23T09:01:52.408Z,19.32
2022-10-23T09:04:56.591Z,19.33
2022-10-23T09:08:08.857Z,19.37
2022-10-23T09:11:17.488Z,19.37
2022-10-23T09:14:36.035Z,19.40
2022-10-23T09:17:41.315Z,19.43
2022-10-23T09:20:45.851Z,19.31
2022-10-23T09:23:48.996Z,19.36
2022-10-23T09:26:54.333Z,19.38
2022-10-23T09:29:59.425Z,19.40
2022-10-23T09:33:02.723Z,19.37
2022-10-23T09:36:07.227Z,19.39
2022-10-23T09:39:22.120Z,19.39
2022-10-23T09:42:27.249Z,19.40
2022-10-23T09:45:31.489Z,19.43
2022-10-23T09:48:35.206Z,19.48
2022-10-23T09:51:41.883Z,19.59
2022-10-23T09:54:46.121Z,19.73
2022-10-23T09:57:50.708Z,19.83
2022-10-23T10:00:55.882Z,19.89
2022-10-23T10:03:58.685Z,19.91
2022-10-23T10:07:02.897Z,20.00
2022-10-23T10:10:08.850Z,20.03
2022-10-23T10:13:23.673Z,20.07
2022-10-23T10:16:33.892Z,20.13
2022-10-23T10:19:45.287Z,20.16
2022-10-23T10:22:51.302Z,20.19
2022-10-23T10:26:00.618Z,20.30
2022-10-23T10:29:21.346Z,20.34
2022-10-23T10:32:32.251Z,20.28
2022-10-23T10:35:39.131Z,20.34
2022-10-23T10:38:45.890Z,20.35
2022-10-23T10:41:54.357Z,20.37
2022-10-23T10:45:12.941Z,20.37
2022-10-23T10:48:34.153Z,20.43
2022-10-23T10:51:40.144Z,20.44
2022-10-23T10:54:50.448Z,20.31
2022-10-23T10:57:59.864Z,20.39
2022-10-23T11:01:12.197Z,20.38
2022-10-23T11:04:19.470Z,20.36
2022-10-23T11:07:25.769Z,20.35
2022-10-23T11:10:29.445Z,20.33
2022-10-23T11:13:35.627Z,20.32
2022-10-23T11:16:42.443Z,20.34
2022-10-23T11:19:48.588Z,20.27
2022-10-23T11:22:55.339Z,20.20
2022-10-23T11:26:03.922Z,20.20
2022-10-23T11:29:28.059Z,20.32
2022-10-23T11:32:43.895Z,20.34
2022-10-23T11:35:52.801Z,20.47
2022-10-23T11:38:59.312Z,20.45
2022-10-23T11:42:13.664Z,20.37
2022-10-23T11:45:29.993Z,20.39
2022-10-23T11:48:45.046Z,20.44
2022-10-23T11:51:50.616Z,20.43
2022-10-23T11:55:02.042Z,20.51
2022-10-23T11:58:22.459Z,20.51
2022-10-23T12:01:37.504Z,20.56
2022-10-23T12:04:47.626Z,20.55
2022-10-23T12:07:55.719Z,20.50
2022-10-23T12:10:58.764Z,20.51
2022-10-23T12:14:01.733Z,20.55
2022-10-23T12:17:20.112Z,20.52
2022-10-23T12:20:28.336Z,20.53
2022-10-23T12:23:47.380Z,20.46
2022-10-23T12:27:09.559Z,20.48
2022-10-23T12:30:23.002Z,20.37
2022-10-23T12:33:29.655Z,20.35
2022-10-23T12:36:41.385Z,20.46
2022-10-23T12:39:44.228Z,20.35
2022-10-23T12:42:51.450Z,20.41
2022-10-23T12:45:55.703Z,20.40
2022-10-23T12:48:59.368Z,20.31
2022-10-23T12:52:06.147Z,20.36
2022-10-23T12:55:14.789Z,20.27
2022-10-23T12:58:21.180Z,20.27
2022-10-23T13:01:25.364Z,20.31
2022-10-23T13:04:30.739Z,20.32
2022-10-23T13:07:36.898Z,20.26
2022-10-23T13:10:40.064Z,20.23
2022-10-23T13:13:43.110Z,20.22
2022-10-23T13:16:46.211Z,20.22
2022-10-23T13:19:49.185Z,20.23
2022-10-23T13:22:59.433Z,20.22
2022-10-23T13:26:04.561Z,20.30
2022-10-23T13:29:18.713Z,20.29
2022-10-23T13:32:24.582Z,20.25
2022-10-23T13:35:27.830Z,20.27
2022-10-23T13:38:34.538Z,20.31
2022-10-23T13:41:39.384Z,20.29
2022-10-23T13:44:42.496Z,20.26
2022-10-23T13:47:45.674Z,20.23
2022-10-23T13:50:48.659Z,20.39
2022-10-23T13:53:53.113Z,20.40
2022-10-23T13:56:56.284Z,20.39
2022-10-23T13:59:59.160Z,20.39
2022-10-23T14:03:02.011Z,20.41
2022-10-23T14:06:05.045Z,20.39
2022-10-23T14:09:10.326Z,20.39
2022-10-23T14:12:13.744Z,20.33
2022-10-23T14:15:16.917Z,20.34
2022-10-23T14:18:20.025Z,20.35
2022-10-23T14:21:23.460Z,20.37
2022-10-23T14:24:27.847Z,20.37
2022-10-23T14:27:31.191Z,20.35
2022-10-23T14:30:34.158Z,20.37
2022-10-23T14:33:37.211Z,20.38
2022-10-23T14:36:49.706Z,20.37
2022-10-23T14:39:58.383Z,20.40
2022-10-23T14:43:01.206Z,20.39
2022-10-23T14:46:09.209Z,20.36
2022-10-23T14:49:12.295Z,20.38
2022-10-23T14:52:15.170Z,20.32
2022-10-23T14:55:19.521Z,20.26
2022-10-23T14:58:24.352Z,20.24
2022-10-23T15:01:29.922Z,20.18
2022-10-23T15:04:33.090Z,20.17
2022-10-23T15:07:36.180Z,20.10
2022-10-23T15:10:41.471Z,20.08
2022-10-23T15:13:44.739Z,20.09
2022-10-23T15:16:49.829Z,20.09
2022-10-23T15:19:53.008Z,20.04
2022-10-23T15:22:57.043Z,20.05
2022-10-23T15:26:02.744Z,20.10
2022-10-23T15:29:05.672Z,20.14
2022-10-23T15:32:10.502Z,20.13
2022-10-23T15:35:15.527Z,20.10
2022-10-23T15:38:19.796Z,20.09
2022-10-23T15:41:30.451Z,20.11
2022-10-23T15:44:39.180Z,20.09
2022-10-23T15:47:43.341Z,20.09
2022-10-23T15:50:46.613Z,20.09
2022-10-23T15:53:49.765Z,20.10
2022-10-23T15:57:10.908Z,20.10
2022-10-23T16:00:18.319Z,20.13
2022-10-23T16:03:27.872Z,20.15
2022-10-23T16:06:31.713Z,20.14
2022-10-23T16:09:37.395Z,20.23
2022-10-23T16:25:13.401Z,20.15
2022-10-23T16:28:23.268Z,20.14
2022-10-23T16:31:26.733Z,20.15
2022-10-23T16:34:34.536Z,20.14
2022-10-23T16:37:40.061Z,20.12
2022-10-23T16:40:51.372Z,20.19
2022-10-23T16:43:54.221Z,20.17
2022-10-23T16:46:57.430Z,20.18
2022-10-23T16:50:05.681Z,20.18
2022-10-23T16:53:09.887Z,20.25
2022-10-23T16:56:15.826Z,20.31
2022-10-23T16:59:19.002Z,20.26
2022-10-23T17:02:25.546Z,20.29
2022-10-23T17:05:29.837Z,20.27
2022-10-23T17:08:33.572Z,20.29
2022-10-23T17:11:40.178Z,20.30
2022-10-23T17:14:43.822Z,20.29
2022-10-23T17:17:49.465Z,20.29
2022-10-23T17:20:58.782Z,20.26
2022-10-23T17:27:21.742Z,20.30
2022-10-23T17:34:46.686Z,20.20
2022-10-23T17:37:50.551Z,20.18
2022-10-23T17:40:53.328Z,20.21
2022-10-23T17:43:58.685Z,20.23
2022-10-23T17:47:01.468Z,20.23
2022-10-23T17:50:04.273Z,20.26
2022-10-23T17:53:07.086Z,20.26
2022-10-23T17:56:10.872Z,20.25
2022-10-23T17:59:16.341Z,20.27
2022-10-23T18:02:19.260Z,20.27
2022-10-23T18:05:23.354Z,20.27
2022-10-23T18:08:25.985Z,20.30
2022-10-23T18:11:30.477Z,20.31
2022-10-23T18:14:37.563Z,20.31
2022-10-23T18:17:40.520Z,20.32
2022-10-23T18:20:43.639Z,20.31
2022-10-23T18:23:46.773Z,20.33
2022-10-23T18:26:49.698Z,20.32
2022-10-23T18:29:54.211Z,20.32
2022-10-23T18:32:58.323Z,20.30
2022-10-23T18:36:01.124Z,20.32
2022-10-23T18:39:05.787Z,20.32
2022-10-23T18:42:08.628Z,20.32
2022-10-23T18:45:15.239Z,20.32
2022-10-23T18:48:17.883Z,20.30
2022-10-23T18:51:24.968Z,20.31
2022-10-23T18:54:27.809Z,20.27
2022-10-23T18:57:30.704Z,20.27
2022-10-23T19:00:34.894Z,20.26
2022-10-23T19:03:37.660Z,20.22
2022-10-23T19:06:40.458Z,20.22
2022-10-23T19:09:43.651Z,20.23
2022-10-23T19:12:47.320Z,20.22
2022-10-23T19:15:51.563Z,20.24
2022-10-23T19:18:55.796Z,20.30
2022-10-23T19:21:58.910Z,20.33
2022-10-23T19:25:04.813Z,20.27
2022-10-23T19:28:07.656Z,20.34
2022-10-23T19:31:12.462Z,20.35
2022-10-23T19:34:15.199Z,20.24
2022-10-23T19:37:17.953Z,20.23
2022-10-23T19:40:24.200Z,20.21
2022-10-23T19:43:29.230Z,20.18
2022-10-23T19:46:35.800Z,20.16
2022-10-23T19:49:38.681Z,20.15
2022-10-23T19:52:42.274Z,20.14
2022-10-23T19:55:45.079Z,20.30
2022-10-23T19:58:47.865Z,20.27
2022-10-23T20:01:52.051Z,20.13
2022-10-23T20:05:13.527Z,20.04
2022-10-23T20:08:16.423Z,20.00
2022-10-23T20:11:20.881Z,19.99
2022-10-23T20:14:23.674Z,19.97
2022-10-23T20:17:27.901Z,19.96
2022-10-23T20:20:30.627Z,19.97
2022-10-23T20:23:33.436Z,19.97
2022-10-23T20:26:36.971Z,19.96
2022-10-23T20:29:39.839Z,20.00
2022-10-23T20:32:44.260Z,19.97
2022-10-23T20:35:47.126Z,19.93
2022-10-23T20:38:49.985Z,19.97
2022-10-23T20:50:08.602Z,19.71
2022-10-23T20:53:11.269Z,19.67
2022-10-23T20:56:15.072Z,19.65
2022-10-23T20:59:19.004Z,19.65
2022-10-23T21:02:21.765Z,19.65
2022-10-23T21:05:25.821Z,19.63
2022-10-23T21:08:28.478Z,19.62
2022-10-23T21:11:31.619Z,19.59
2022-10-23T21:14:34.352Z,19.58
2022-10-23T21:17:39.054Z,19.58
2022-10-23T21:20:43.154Z,19.55
2022-10-23T21:23:46.516Z,19.54
2022-10-23T21:26:49.178Z,19.53
2022-10-23T21:29:51.863Z,19.51
2022-10-23T21:32:54.621Z,19.48
2022-10-23T21:36:12.798Z,19.49
2022-10-23T21:39:16.559Z,19.49
2022-10-23T21:42:19.364Z,19.48
2022-10-23T21:45:22.151Z,19.45
2022-10-23T21:48:24.864Z,19.42
2022-10-23T21:51:30.287Z,19.41
2022-10-23T21:54:33.038Z,19.39
2022-10-23T21:57:35.694Z,19.40
2022-10-23T22:00:38.333Z,19.40
2022-10-23T22:03:41.067Z,19.36
2022-10-23T22:06:45.548Z,19.35
2022-10-23T22:09:48.232Z,19.35
2022-10-23T22:12:50.952Z,19.33
2022-10-23T22:15:53.607Z,19.29
2022-10-23T22:18:56.334Z,19.28
2022-10-23T22:22:00.407Z,19.25
2022-10-23T22:25:03.137Z,19.25
2022-10-23T22:28:05.838Z,19.20
2022-10-23T22:31:15.219Z,19.21
2022-10-23T22:34:27.193Z,19.20
2022-10-23T22:37:38.172Z,19.18
2022-10-23T22:40:45.648Z,19.17
2022-10-23T22:43:49.235Z,19.17
2022-10-23T22:46:51.940Z,19.18
2022-10-23T22:49:54.622Z,19.15
2022-10-23T22:52:58.621Z,19.25
2022-10-23T22:56:01.356Z,19.18
2022-10-23T22:59:04.118Z,19.16
2022-10-23T23:02:06.774Z,19.20
2022-10-23T23:05:11.118Z,19.15
2022-10-23T23:08:15.658Z,19.15
2022-10-23T23:11:22.197Z,19.11
2022-10-23T23:14:24.875Z,19.12
2022-10-23T23:17:27.560Z,19.11
2022-10-23T23:20:30.271Z,19.11
2022-10-23T23:23:35.555Z,19.11
2022-10-23T23:26:38.340Z,19.12
2022-10-23T23:29:41.052Z,19.08
2022-10-23T23:32:43.974Z,19.07
2022-10-23T23:35:47.835Z,19.07
2022-10-23T23:38:51.941Z,19.07
2022-10-23T23:41:54.707Z,19.01
2022-10-23T23:45:10.098Z,19.04
2022-10-23T23:48:16.127Z,19.04
2022-10-23T23:51:20.029Z,19.01
2022-10-23T23:54:24.228Z,19.00
2022-10-23T23:57:27.088Z,19.00
